createdAt,value
2019-02-20T00:00:14.116Z,1013.61
2019-02-20T00:01:14.116Z,1013.62
2019-02-20T00:02:14.089Z,1013.59
2019-02-20T00:03:14.086Z,1013.54
2019-02-20T00:04:14.063Z,1013.55
2019-02-20T00:05:14.062Z,1013.57
2019-02-20T00:06:14.062Z,1013.65
2019-02-20T00:07:14.038Z,1013.59
2019-02-20T00:08:14.023Z,1013.63
2019-02-20T00:09:14.019Z,1013.63
2019-02-20T00:10:14.000Z,1013.65
2019-02-20T00:11:14.017Z,1013.62
2019-02-20T00:12:13.976Z,1013.63
2019-02-20T00:13:13.961Z,1013.65
2019-02-20T00:14:13.956Z,1013.67
2019-02-20T00:15:13.943Z,1013.68
2019-02-20T00:16:13.951Z,1013.68
2019-02-20T00:17:13.917Z,1013.63
2019-02-20T00:18:13.920Z,1013.68
2019-02-20T00:19:13.893Z,1013.62
2019-02-20T00:20:13.888Z,1013.65
2019-02-20T00:21:13.908Z,1013.60
2019-02-20T00:22:13.872Z,1013.63
2019-02-20T00:23:13.851Z,1013.61
2019-02-20T00:24:13.850Z,1013.62
2019-02-20T00:25:13.841Z,1013.69
2019-02-20T00:26:13.861Z,1013.63
2019-02-20T00:27:13.807Z,1013.62
2019-02-20T00:28:13.798Z,1013.66
2019-02-20T00:29:13.796Z,1013.63
2019-02-20T00:30:13.773Z,1013.67
2019-02-20T00:31:13.769Z,1013.63
2019-02-20T00:32:13.779Z,1013.65
2019-02-20T00:33:13.739Z,1013.71
2019-02-20T00:34:13.730Z,1013.67
2019-02-20T00:35:13.722Z,1013.67
2019-02-20T00:36:13.703Z,1013.75
2019-02-20T00:37:13.713Z,1013.71
2019-02-20T00:38:13.685Z,1013.68
2019-02-20T00:39:13.669Z,1013.68
2019-02-20T00:40:13.659Z,1013.73
2019-02-20T00:41:13.650Z,1013.77
2019-02-20T00:42:13.661Z,1013.71
2019-02-20T00:43:13.647Z,1013.73
2019-02-20T00:44:13.614Z,1013.81
2019-02-20T00:45:13.612Z,1013.76
2019-02-20T00:46:13.599Z,1013.74
2019-02-20T00:47:13.607Z,1013.75
2019-02-20T00:48:13.576Z,1013.80
2019-02-20T00:49:13.559Z,1013.78
2019-02-20T00:50:13.551Z,1013.75
2019-02-20T00:51:13.541Z,1013.75
2019-02-20T00:52:13.542Z,1013.77
2019-02-20T00:53:13.578Z,1013.78
2019-02-20T00:54:13.509Z,1013.78
2019-02-20T00:55:13.495Z,1013.82
2019-02-20T00:56:13.481Z,1013.79
2019-02-20T00:57:13.493Z,1013.80
2019-02-20T00:58:13.464Z,1013.79
2019-02-20T00:59:13.450Z,1013.84
2019-02-20T01:00:13.443Z,1013.82
2019-02-20T01:01:13.425Z,1013.85
2019-02-20T01:02:13.429Z,1013.84
2019-02-20T01:03:13.405Z,1013.84
2019-02-20T01:04:13.397Z,1013.84
2019-02-20T01:05:13.379Z,1013.88
2019-02-20T01:06:13.367Z,1013.91
2019-02-20T01:07:13.382Z,1013.89
2019-02-20T01:08:13.347Z,1013.88
2019-02-20T01:09:13.343Z,1013.92
2019-02-20T01:10:13.334Z,1013.91
2019-02-20T01:11:13.324Z,1013.93
2019-02-20T01:12:13.327Z,1013.91
2019-02-20T01:13:13.299Z,1013.91
2019-02-20T01:14:13.280Z,1013.91
2019-02-20T01:15:13.281Z,1013.96
2019-02-20T01:16:13.268Z,1013.95
2019-02-20T01:17:13.274Z,1013.91
2019-02-20T01:18:13.236Z,1013.92
2019-02-20T01:19:13.222Z,1013.94
2019-02-20T01:20:13.213Z,1013.88
2019-02-20T01:21:13.210Z,1013.93
2019-02-20T01:22:13.228Z,1013.90
2019-02-20T01:23:13.191Z,1013.88
2019-02-20T01:24:13.170Z,1013.92
2019-02-20T01:25:13.165Z,1013.88
2019-02-20T01:26:13.157Z,1013.92
2019-02-20T01:27:13.161Z,1013.85
2019-02-20T01:28:13.125Z,1013.89
2019-02-20T01:29:13.109Z,1013.88
2019-02-20T01:30:13.101Z,1013.88
2019-02-20T01:31:13.091Z,1013.84
2019-02-20T01:32:13.094Z,1013.87
2019-02-20T01:33:13.079Z,1013.82
2019-02-20T01:34:13.065Z,1013.85
2019-02-20T01:35:13.051Z,1013.82
2019-02-20T01:36:13.031Z,1013.85
2019-02-20T01:37:13.048Z,1013.82
2019-02-20T01:38:13.014Z,1013.84
2019-02-20T01:39:13.011Z,1013.83
2019-02-20T01:40:12.989Z,1013.81
2019-02-20T01:41:12.987Z,1013.80
2019-02-20T01:42:12.981Z,1013.84
2019-02-20T01:43:12.953Z,1013.80
2019-02-20T01:44:12.948Z,1013.82
2019-02-20T01:45:12.935Z,1013.76
2019-02-20T01:46:12.919Z,1013.83
2019-02-20T01:47:12.928Z,1013.77
2019-02-20T01:48:12.901Z,1013.78
2019-02-20T01:49:12.901Z,1013.76
2019-02-20T01:50:12.883Z,1013.80
2019-02-20T01:51:12.889Z,1013.78
2019-02-20T01:52:12.873Z,1013.77
2019-02-20T01:53:12.843Z,1013.78
2019-02-20T01:54:12.855Z,1013.72
2019-02-20T01:55:12.824Z,1013.79
2019-02-20T01:56:12.820Z,1013.78
2019-02-20T01:57:12.813Z,1013.73
2019-02-20T01:58:12.790Z,1013.78
2019-02-20T01:59:12.777Z,1013.79
2019-02-20T02:00:12.786Z,1013.79
2019-02-20T02:01:12.755Z,1013.76
2019-02-20T02:02:12.765Z,1013.81
2019-02-20T02:03:12.730Z,1013.76
2019-02-20T02:04:12.717Z,1013.79
2019-02-20T02:05:15.800Z,1013.84
2019-02-20T02:06:12.722Z,1013.76
2019-02-20T02:07:12.870Z,1013.78
2019-02-20T02:08:12.677Z,1013.78
2019-02-20T02:09:12.665Z,1013.78
2019-02-20T02:10:12.669Z,1013.80
2019-02-20T02:11:12.643Z,1013.77
2019-02-20T02:12:12.678Z,1013.75
2019-02-20T02:13:12.651Z,1013.76
2019-02-20T02:14:12.607Z,1013.69
2019-02-20T02:15:20.027Z,1013.74
2019-02-20T02:16:13.581Z,1013.74
2019-02-20T02:17:12.571Z,1013.69
2019-02-20T02:18:12.581Z,1013.75
2019-02-20T02:19:12.551Z,1013.69
2019-02-20T02:20:12.543Z,1013.74
2019-02-20T02:21:12.531Z,1013.77
2019-02-20T02:22:12.538Z,1013.72
2019-02-20T02:23:19.717Z,1013.76
2019-02-20T02:24:13.495Z,1013.77
2019-02-20T02:25:12.481Z,1013.78
2019-02-20T02:26:12.473Z,1013.73
2019-02-20T02:27:12.464Z,1013.74
2019-02-20T02:28:12.465Z,1013.73
2019-02-20T02:29:12.441Z,1013.75
2019-02-20T02:30:12.434Z,1013.70
2019-02-20T02:31:12.418Z,1013.76
2019-02-20T02:32:12.404Z,1013.77
2019-02-20T02:33:12.416Z,1013.79
2019-02-20T02:34:12.378Z,1013.78
2019-02-20T02:35:12.373Z,1013.75
2019-02-20T02:36:12.359Z,1013.77
2019-02-20T02:37:12.358Z,1013.84
2019-02-20T02:38:12.361Z,1013.87
2019-02-20T02:39:12.325Z,1013.87
2019-02-20T02:40:12.321Z,1013.79
2019-02-20T02:41:12.305Z,1013.84
2019-02-20T02:42:12.317Z,1013.80
2019-02-20T02:43:12.294Z,1013.87
2019-02-20T02:44:12.269Z,1013.86
2019-02-20T02:45:12.263Z,1013.87
2019-02-20T02:46:12.243Z,1013.88
2019-02-20T02:47:12.235Z,1013.86
2019-02-20T02:48:12.246Z,1013.85
2019-02-20T02:49:12.256Z,1013.89
2019-02-20T02:50:12.227Z,1013.86
2019-02-20T02:51:12.218Z,1013.86
2019-02-20T02:52:12.214Z,1013.88
2019-02-20T02:53:12.187Z,1013.87
2019-02-20T02:54:12.181Z,1013.83
2019-02-20T02:55:12.160Z,1013.90
2019-02-20T02:56:12.136Z,1013.85
2019-02-20T02:57:12.125Z,1013.81
2019-02-20T02:58:12.127Z,1013.90
2019-02-20T02:59:12.102Z,1013.84
2019-02-20T03:00:12.089Z,1013.94
2019-02-20T03:01:12.074Z,1013.88
2019-02-20T03:02:12.065Z,1013.89
2019-02-20T03:03:12.078Z,1013.88
2019-02-20T03:04:12.045Z,1013.88
2019-02-20T03:05:12.031Z,1013.84
2019-02-20T03:06:12.022Z,1013.93
2019-02-20T03:07:12.015Z,1013.84
2019-02-20T03:08:12.015Z,1013.82
2019-02-20T03:09:11.993Z,1013.81
2019-02-20T03:10:11.979Z,1013.81
2019-02-20T03:11:11.967Z,1013.82
2019-02-20T03:12:11.957Z,1013.81
2019-02-20T03:13:11.975Z,1013.83
2019-02-20T03:14:11.935Z,1013.86
2019-02-20T03:15:11.924Z,1013.84
2019-02-20T03:16:11.917Z,1013.80
2019-02-20T03:17:11.907Z,1013.83
2019-02-20T03:18:11.906Z,1013.82
2019-02-20T03:19:11.883Z,1013.87
2019-02-20T03:20:11.864Z,1013.92
2019-02-20T03:21:11.864Z,1013.91
2019-02-20T03:22:11.841Z,1013.96
2019-02-20T03:23:11.847Z,1013.97
2019-02-20T03:24:11.823Z,1013.96
2019-02-20T03:25:11.810Z,1013.93
2019-02-20T03:26:11.798Z,1013.97
2019-02-20T03:27:11.791Z,1013.97
2019-02-20T03:28:11.852Z,1013.96
2019-02-20T03:29:11.777Z,1013.99
2019-02-20T03:30:11.757Z,1014.00
2019-02-20T03:31:11.744Z,1013.99
2019-02-20T03:32:11.734Z,1014.05
2019-02-20T03:33:11.752Z,1013.99
2019-02-20T03:34:11.718Z,1014.02
2019-02-20T03:35:11.715Z,1014.03
2019-02-20T03:36:11.686Z,1014.03
2019-02-20T03:37:11.687Z,1014.06
2019-02-20T03:38:11.685Z,1014.06
2019-02-20T03:39:11.679Z,1014.07
2019-02-20T03:40:11.678Z,1014.07
2019-02-20T03:41:11.632Z,1014.08
2019-02-20T03:42:11.621Z,1014.05
2019-02-20T03:43:11.644Z,1014.13
2019-02-20T03:44:11.603Z,1014.15
2019-02-20T03:45:11.593Z,1014.09
2019-02-20T03:46:11.581Z,1014.16
2019-02-20T03:47:11.645Z,1014.12
2019-02-20T03:48:11.597Z,1014.14
2019-02-20T03:49:11.546Z,1014.14
2019-02-20T03:50:11.547Z,1014.14
2019-02-20T03:51:11.521Z,1014.13
2019-02-20T03:52:11.525Z,1014.16
2019-02-20T03:53:11.512Z,1014.18
2019-02-20T03:54:11.490Z,1014.13
2019-02-20T03:55:11.475Z,1014.17
2019-02-20T03:56:11.470Z,1014.26
2019-02-20T03:57:11.454Z,1014.19
2019-02-20T03:58:11.481Z,1014.18
2019-02-20T03:59:11.433Z,1014.24
2019-02-20T04:00:11.431Z,1014.19
2019-02-20T04:01:11.417Z,1014.21
2019-02-20T04:02:11.407Z,1014.20
2019-02-20T04:03:11.408Z,1014.21
2019-02-20T04:04:11.380Z,1014.18
2019-02-20T04:05:11.362Z,1014.19
2019-02-20T04:06:11.357Z,1014.21
2019-02-20T04:07:11.346Z,1014.21
2019-02-20T04:08:11.369Z,1014.18
2019-02-20T04:09:11.319Z,1014.21
2019-02-20T04:10:11.304Z,1014.23
2019-02-20T04:11:11.301Z,1014.25
2019-02-20T04:12:11.289Z,1014.22
2019-02-20T04:13:11.281Z,1014.19
2019-02-20T04:14:11.289Z,1014.22
2019-02-20T04:15:11.253Z,1014.24
2019-02-20T04:16:11.238Z,1014.18
2019-02-20T04:17:11.230Z,1014.21
2019-02-20T04:18:11.220Z,1014.15
2019-02-20T04:19:11.231Z,1014.16
2019-02-20T04:20:11.195Z,1014.20
2019-02-20T04:21:11.191Z,1014.16
2019-02-20T04:22:11.171Z,1014.14
2019-02-20T04:23:11.196Z,1014.19
2019-02-20T04:24:11.173Z,1014.13
2019-02-20T04:25:11.151Z,1014.13
2019-02-20T04:26:11.131Z,1014.22
2019-02-20T04:27:11.142Z,1014.19
2019-02-20T04:28:11.104Z,1014.21
2019-02-20T04:29:11.126Z,1014.20
2019-02-20T04:30:11.091Z,1014.22
2019-02-20T04:31:11.078Z,1014.23
2019-02-20T04:32:11.062Z,1014.25
2019-02-20T04:33:11.046Z,1014.25
2019-02-20T04:34:11.060Z,1014.24
2019-02-20T04:35:11.035Z,1014.21
2019-02-20T04:36:11.087Z,1014.26
2019-02-20T04:37:11.046Z,1014.29
2019-02-20T04:38:10.998Z,1014.28
2019-02-20T04:39:11.003Z,1014.25
2019-02-20T04:40:10.975Z,1014.29
2019-02-20T04:41:10.967Z,1014.31
2019-02-20T04:42:10.957Z,1014.31
2019-02-20T04:43:10.939Z,1014.34
2019-02-20T04:44:10.958Z,1014.30
2019-02-20T04:45:10.911Z,1014.29
2019-02-20T04:46:10.908Z,1014.25
2019-02-20T04:47:10.902Z,1014.28
2019-02-20T04:48:10.895Z,1014.27
2019-02-20T04:49:10.895Z,1014.30
2019-02-20T04:50:10.863Z,1014.29
2019-02-20T04:51:10.852Z,1014.29
2019-02-20T04:52:10.840Z,1014.32
2019-02-20T04:53:10.837Z,1014.33
2019-02-20T04:54:13.495Z,1014.33
2019-02-20T04:55:10.821Z,1014.36
2019-02-20T04:56:10.817Z,1014.38
2019-02-20T04:57:10.787Z,1014.35
2019-02-20T04:58:10.787Z,1014.35
2019-02-20T04:59:10.795Z,1014.42
2019-02-20T05:00:10.767Z,1014.36
2019-02-20T05:01:10.735Z,1014.27
2019-02-20T05:02:10.722Z,1014.29
2019-02-20T05:03:10.719Z,1014.27
2019-02-20T05:04:10.732Z,1014.33
2019-02-20T05:05:10.707Z,1014.26
2019-02-20T05:06:10.682Z,1014.33
2019-02-20T05:07:10.665Z,1014.34
2019-02-20T05:08:10.655Z,1014.33
2019-02-20T05:09:10.668Z,1014.34
2019-02-20T05:10:10.656Z,1014.35
2019-02-20T05:11:10.637Z,1014.34
2019-02-20T05:12:10.623Z,1014.42
2019-02-20T05:13:10.607Z,1014.39
2019-02-20T05:14:10.617Z,1014.40
2019-02-20T05:15:10.620Z,1014.38
2019-02-20T05:16:10.568Z,1014.34
2019-02-20T05:17:10.555Z,1014.28
2019-02-20T05:18:10.545Z,1014.27
2019-02-20T05:19:10.560Z,1014.30
2019-02-20T05:20:10.535Z,1014.34
2019-02-20T05:21:10.513Z,1014.34
2019-02-20T05:22:10.512Z,1014.40
2019-02-20T05:23:10.487Z,1014.41
2019-02-20T05:24:10.493Z,1014.48
2019-02-20T05:25:10.461Z,1014.40
2019-02-20T05:26:10.476Z,1014.37
2019-02-20T05:27:10.451Z,1014.45
2019-02-20T05:28:10.456Z,1014.36
2019-02-20T05:29:10.448Z,1014.34
2019-02-20T05:30:10.415Z,1014.28
2019-02-20T05:31:10.398Z,1014.33
2019-02-20T05:32:10.394Z,1014.31
2019-02-20T05:33:10.383Z,1014.35
2019-02-20T05:34:10.387Z,1014.41
2019-02-20T05:35:10.355Z,1014.36
2019-02-20T05:36:10.346Z,1014.41
2019-02-20T05:37:10.334Z,1014.42
2019-02-20T05:38:10.317Z,1014.40
2019-02-20T05:39:10.325Z,1014.40
2019-02-20T05:40:10.300Z,1014.40
2019-02-20T05:41:10.284Z,1014.42
2019-02-20T05:42:10.279Z,1014.45
2019-02-20T05:43:10.271Z,1014.44
2019-02-20T05:44:10.273Z,1014.43
2019-02-20T05:45:10.248Z,1014.42
2019-02-20T05:46:10.229Z,1014.47
2019-02-20T05:47:10.224Z,1014.48
2019-02-20T05:48:10.209Z,1014.48
2019-02-20T05:49:10.217Z,1014.53
2019-02-20T05:50:10.188Z,1014.50
2019-02-20T05:51:10.192Z,1014.52
2019-02-20T05:52:10.844Z,1014.53
2019-02-20T05:53:10.153Z,1014.51
2019-02-20T05:54:10.163Z,1014.55
2019-02-20T05:55:10.129Z,1014.54
2019-02-20T05:56:10.122Z,1014.59
2019-02-20T05:57:10.108Z,1014.58
2019-02-20T05:58:10.124Z,1014.61
2019-02-20T05:59:10.097Z,1014.62
2019-02-20T06:00:10.085Z,1014.68
2019-02-20T06:01:10.067Z,1014.66
2019-02-20T06:02:10.055Z,1014.70
2019-02-20T06:03:10.043Z,1014.71
2019-02-20T06:04:10.043Z,1014.73
2019-02-20T06:05:10.019Z,1014.74
2019-02-20T06:06:10.009Z,1014.76
2019-02-20T06:07:09.991Z,1014.74
2019-02-20T06:08:09.995Z,1014.79
2019-02-20T06:09:10.001Z,1014.73
2019-02-20T06:10:09.966Z,1014.78
2019-02-20T06:11:14.706Z,1014.75
2019-02-20T06:12:10.938Z,1014.74
2019-02-20T06:13:09.930Z,1014.74
2019-02-20T06:14:09.935Z,1014.72
2019-02-20T06:15:09.923Z,1014.75
2019-02-20T06:16:09.891Z,1014.74
2019-02-20T06:17:09.882Z,1014.81
2019-02-20T06:18:09.891Z,1014.77
2019-02-20T06:19:09.903Z,1014.83
2019-02-20T06:20:09.850Z,1014.82
2019-02-20T06:21:09.853Z,1014.84
2019-02-20T06:22:09.833Z,1014.88
2019-02-20T06:23:09.827Z,1014.89
2019-02-20T06:24:09.823Z,1014.93
2019-02-20T06:25:09.828Z,1014.95
2019-02-20T06:26:09.783Z,1014.93
2019-02-20T06:27:09.785Z,1014.97
2019-02-20T06:28:09.766Z,1014.99
2019-02-20T06:29:09.771Z,1014.96
2019-02-20T06:30:09.748Z,1015.02
2019-02-20T06:31:09.747Z,1014.93
2019-02-20T06:32:09.735Z,1014.96
2019-02-20T06:33:09.699Z,1014.98
2019-02-20T06:34:09.687Z,1015.01
2019-02-20T06:35:09.730Z,1014.96
2019-02-20T06:36:09.670Z,1015.00
2019-02-20T06:37:09.661Z,1015.05
2019-02-20T06:38:10.974Z,1015.07
2019-02-20T06:39:09.644Z,1015.05
2019-02-20T06:40:09.654Z,1015.10
2019-02-20T06:41:09.644Z,1015.05
2019-02-20T06:42:09.616Z,1015.06
2019-02-20T06:43:09.595Z,1015.07
2019-02-20T06:44:09.579Z,1015.07
2019-02-20T06:45:09.617Z,1015.06
2019-02-20T06:46:09.560Z,1015.04
2019-02-20T06:47:09.547Z,1015.09
2019-02-20T06:48:09.541Z,1015.10
2019-02-20T06:49:09.647Z,1015.10
2019-02-20T06:50:09.527Z,1015.12
2019-02-20T06:51:09.506Z,1015.14
2019-02-20T06:52:09.502Z,1015.14
2019-02-20T06:53:09.488Z,1015.19
2019-02-20T06:54:09.475Z,1015.18
2019-02-20T06:55:09.499Z,1015.20
2019-02-20T06:56:09.444Z,1015.22
2019-02-20T06:57:09.431Z,1015.21
2019-02-20T06:58:09.419Z,1015.21
2019-02-20T06:59:09.413Z,1015.21
2019-02-20T07:00:09.414Z,1015.19
2019-02-20T07:01:09.385Z,1015.19
2019-02-20T07:02:09.379Z,1015.18
2019-02-20T07:03:09.365Z,1015.16
2019-02-20T07:04:09.373Z,1015.23
2019-02-20T07:05:09.355Z,1015.19
2019-02-20T07:06:09.329Z,1015.18
2019-02-20T07:07:09.323Z,1015.21
2019-02-20T07:08:09.305Z,1015.32
2019-02-20T07:09:09.342Z,1015.28
2019-02-20T07:10:09.326Z,1015.32
2019-02-20T07:11:09.277Z,1015.26
2019-02-20T07:12:09.279Z,1015.27
2019-02-20T07:13:09.257Z,1015.26
2019-02-20T07:14:09.240Z,1015.29
2019-02-20T07:15:09.244Z,1015.26
2019-02-20T07:16:09.221Z,1015.29
2019-02-20T07:17:09.217Z,1015.36
2019-02-20T07:18:09.202Z,1015.35
2019-02-20T07:19:09.184Z,1015.39
2019-02-20T07:20:09.191Z,1015.38
2019-02-20T07:21:09.165Z,1015.42
2019-02-20T07:22:09.165Z,1015.38
2019-02-20T07:23:09.147Z,1015.37
2019-02-20T07:24:09.130Z,1015.36
2019-02-20T07:25:09.139Z,1015.40
2019-02-20T07:26:09.105Z,1015.41
2019-02-20T07:27:09.093Z,1015.38
2019-02-20T07:28:09.085Z,1015.40
2019-02-20T07:29:09.091Z,1015.43
2019-02-20T07:30:09.127Z,1015.50
2019-02-20T07:31:09.061Z,1015.55
2019-02-20T07:32:09.042Z,1015.58
2019-02-20T07:33:09.036Z,1015.66
2019-02-20T07:34:09.016Z,1015.67
2019-02-20T07:35:09.028Z,1015.71
2019-02-20T07:36:08.994Z,1015.75
2019-02-20T07:37:08.983Z,1015.70
2019-02-20T07:38:08.969Z,1015.76
2019-02-20T07:39:08.961Z,1015.76
2019-02-20T07:40:08.969Z,1015.74
2019-02-20T07:41:08.953Z,1015.71
2019-02-20T07:42:08.934Z,1015.78
2019-02-20T07:43:08.915Z,1015.77
2019-02-20T07:44:08.899Z,1015.83
2019-02-20T07:45:08.927Z,1015.84
2019-02-20T07:46:08.907Z,1015.82
2019-02-20T07:47:08.865Z,1015.81
2019-02-20T07:48:08.861Z,1015.85
2019-02-20T07:49:08.846Z,1015.87
2019-02-20T07:50:08.831Z,1015.84
2019-02-20T07:51:08.845Z,1015.86
2019-02-20T07:52:08.807Z,1015.85
2019-02-20T07:53:08.812Z,1015.90
2019-02-20T07:54:08.790Z,1015.97
2019-02-20T07:55:13.373Z,1015.93
2019-02-20T07:56:08.783Z,1015.99
2019-02-20T07:57:08.778Z,1015.96
2019-02-20T07:58:08.743Z,1016.04
2019-02-20T07:59:08.731Z,1016.07
2019-02-20T08:00:08.732Z,1016.12
2019-02-20T08:01:08.737Z,1016.04
2019-02-20T08:02:08.706Z,1016.07
2019-02-20T08:03:08.701Z,1016.06
2019-02-20T08:04:08.689Z,1016.08
2019-02-20T08:05:08.669Z,1016.09
2019-02-20T08:06:08.669Z,1016.05
2019-02-20T08:07:08.643Z,1016.08
2019-02-20T08:08:08.632Z,1016.05
2019-02-20T08:09:08.640Z,1016.01
2019-02-20T08:10:08.611Z,1016.03
2019-02-20T08:11:08.609Z,1016.04
2019-02-20T08:12:08.608Z,1016.06
2019-02-20T08:13:09.550Z,1016.06
2019-02-20T08:14:08.563Z,1016.11
2019-02-20T08:15:08.556Z,1016.08
2019-02-20T08:16:08.581Z,1016.08
2019-02-20T08:17:08.533Z,1016.09
2019-02-20T08:18:08.525Z,1016.06
2019-02-20T08:19:08.518Z,1016.14
2019-02-20T08:20:08.514Z,1016.14
2019-02-20T08:21:08.512Z,1016.10
2019-02-20T08:22:08.471Z,1016.17
2019-02-20T08:23:08.466Z,1016.12
2019-02-20T08:24:08.453Z,1016.17
2019-02-20T08:25:08.439Z,1016.14
2019-02-20T08:26:08.463Z,1016.18
2019-02-20T08:27:08.417Z,1016.21
2019-02-20T08:28:08.407Z,1016.19
2019-02-20T08:29:08.399Z,1016.29
2019-02-20T08:30:08.383Z,1016.26
2019-02-20T08:31:08.393Z,1016.30
2019-02-20T08:32:08.360Z,1016.32
2019-02-20T08:33:08.349Z,1016.34
2019-02-20T08:34:08.341Z,1016.34
2019-02-20T08:35:08.335Z,1016.34
2019-02-20T08:36:08.335Z,1016.36
2019-02-20T08:37:08.314Z,1016.43
2019-02-20T08:38:08.291Z,1016.44
2019-02-20T08:39:08.281Z,1016.45
2019-02-20T08:40:08.277Z,1016.44
2019-02-20T08:41:08.280Z,1016.45
2019-02-20T08:42:08.253Z,1016.43
2019-02-20T08:43:08.243Z,1016.41
2019-02-20T08:44:08.226Z,1016.46
2019-02-20T08:45:08.217Z,1016.50
2019-02-20T08:46:08.227Z,1016.53
2019-02-20T08:47:08.257Z,1016.48
2019-02-20T08:48:08.184Z,1016.52
2019-02-20T08:49:08.168Z,1016.58
2019-02-20T08:50:08.159Z,1016.64
2019-02-20T08:51:08.185Z,1016.61
2019-02-20T08:52:08.143Z,1016.60
2019-02-20T08:53:08.121Z,1016.58
2019-02-20T08:54:08.120Z,1016.60
2019-02-20T08:55:08.105Z,1016.60
2019-02-20T08:56:08.139Z,1016.60
2019-02-20T08:57:08.082Z,1016.61
2019-02-20T08:58:08.075Z,1016.63
2019-02-20T08:59:08.059Z,1016.67
2019-02-20T09:00:08.055Z,1016.74
2019-02-20T09:01:08.061Z,1016.72
2019-02-20T09:02:08.025Z,1016.75
2019-02-20T09:03:08.012Z,1016.76
2019-02-20T09:04:08.001Z,1016.79
2019-02-20T09:05:07.993Z,1016.87
2019-02-20T09:06:08.007Z,1016.87
2019-02-20T09:07:07.967Z,1016.84
2019-02-20T09:08:07.957Z,1016.86
2019-02-20T09:09:07.949Z,1016.84
2019-02-20T09:10:07.930Z,1016.91
2019-02-20T09:11:07.942Z,1016.85
2019-02-20T09:12:07.911Z,1016.82
2019-02-20T09:13:07.900Z,1016.82
2019-02-20T09:14:07.888Z,1016.83
2019-02-20T09:15:07.887Z,1016.91
2019-02-20T09:16:07.892Z,1016.85
2019-02-20T09:17:07.857Z,1016.88
2019-02-20T09:18:07.842Z,1016.97
2019-02-20T09:19:07.833Z,1016.90
2019-02-20T09:20:07.815Z,1016.86
2019-02-20T09:21:07.830Z,1016.95
2019-02-20T09:22:07.810Z,1016.96
2019-02-20T09:23:07.793Z,1016.95
2019-02-20T09:24:07.784Z,1016.94
2019-02-20T09:25:07.762Z,1016.92
2019-02-20T09:26:07.766Z,1016.97
2019-02-20T09:27:07.741Z,1016.92
2019-02-20T09:28:07.732Z,1016.96
2019-02-20T09:29:07.718Z,1016.99
2019-02-20T09:30:07.716Z,1017.02
2019-02-20T09:31:07.710Z,1016.99
2019-02-20T09:32:07.689Z,1016.99
2019-02-20T09:33:07.672Z,1016.94
2019-02-20T09:34:07.667Z,1017.00
2019-02-20T09:35:07.650Z,1017.02
2019-02-20T09:36:07.795Z,1017.03
2019-02-20T09:37:07.624Z,1016.99
2019-02-20T09:38:07.621Z,1017.00
2019-02-20T09:39:07.607Z,1016.98
2019-02-20T09:40:07.608Z,1016.99
2019-02-20T09:41:07.605Z,1016.95
2019-02-20T09:42:07.577Z,1016.98
2019-02-20T09:43:07.557Z,1017.06
2019-02-20T09:44:07.543Z,1017.05
2019-02-20T09:45:07.539Z,1017.07
2019-02-20T09:46:07.549Z,1017.04
2019-02-20T09:47:07.515Z,1017.06
2019-02-20T09:48:07.505Z,1017.03
2019-02-20T09:49:07.499Z,1017.05
2019-02-20T09:50:07.480Z,1017.04
2019-02-20T09:51:07.504Z,1017.04
2019-02-20T09:52:07.462Z,1017.06
2019-02-20T09:53:07.453Z,1017.05
2019-02-20T09:54:07.433Z,1017.13
2019-02-20T09:55:07.437Z,1017.13
2019-02-20T09:56:07.437Z,1017.13
2019-02-20T09:57:07.403Z,1017.07
2019-02-20T09:58:07.393Z,1017.15
2019-02-20T09:59:07.381Z,1017.15
2019-02-20T10:00:07.367Z,1017.15
2019-02-20T10:01:07.378Z,1017.18
2019-02-20T10:02:07.352Z,1017.20
2019-02-20T10:03:07.347Z,1017.20
2019-02-20T10:04:07.326Z,1017.29
2019-02-20T10:05:07.309Z,1017.27
2019-02-20T10:06:07.318Z,1017.27
2019-02-20T10:07:07.285Z,1017.25
2019-02-20T10:08:07.289Z,1017.25
2019-02-20T10:09:07.267Z,1017.25
2019-02-20T10:10:07.248Z,1017.20
2019-02-20T10:11:07.273Z,1017.24
2019-02-20T10:12:07.255Z,1017.21
2019-02-20T10:13:09.490Z,1017.27
2019-02-20T10:14:07.216Z,1017.28
2019-02-20T10:15:07.208Z,1017.29
2019-02-20T10:16:07.187Z,1017.34
2019-02-20T10:17:07.194Z,1017.31
2019-02-20T10:18:07.706Z,1017.29
2019-02-20T10:19:07.154Z,1017.27
2019-02-20T10:20:07.147Z,1017.29
2019-02-20T10:21:07.131Z,1017.26
2019-02-20T10:22:07.136Z,1017.20
2019-02-20T10:23:07.114Z,1017.19
2019-02-20T10:24:07.096Z,1017.19
2019-02-20T10:25:07.096Z,1017.15
2019-02-20T10:26:07.071Z,1017.14
2019-02-20T10:27:07.079Z,1017.12
2019-02-20T10:28:07.047Z,1017.10
2019-02-20T10:29:07.044Z,1017.16
2019-02-20T10:30:07.033Z,1017.20
2019-02-20T10:31:07.034Z,1017.29
2019-02-20T10:32:07.026Z,1017.29
2019-02-20T10:33:06.995Z,1017.35
2019-02-20T10:34:06.993Z,1017.38
2019-02-20T10:35:06.969Z,1017.40
2019-02-20T10:36:06.963Z,1017.35
2019-02-20T10:37:06.983Z,1017.37
2019-02-20T10:38:06.935Z,1017.33
2019-02-20T10:39:06.931Z,1017.35
2019-02-20T10:40:06.909Z,1017.34
2019-02-20T10:41:06.898Z,1017.33
2019-02-20T10:42:06.912Z,1017.36
2019-02-20T10:43:06.880Z,1017.38
2019-02-20T10:44:06.865Z,1017.38
2019-02-20T10:45:06.860Z,1017.41
2019-02-20T10:46:06.854Z,1017.43
2019-02-20T10:47:06.850Z,1017.50
2019-02-20T10:48:06.827Z,1017.50
2019-02-20T10:49:06.809Z,1017.43
2019-02-20T10:50:06.801Z,1017.45
2019-02-20T10:51:06.785Z,1017.46
2019-02-20T10:52:06.801Z,1017.47
2019-02-20T10:53:06.767Z,1017.46
2019-02-20T10:54:06.764Z,1017.34
2019-02-20T10:55:06.750Z,1017.34
2019-02-20T10:56:09.319Z,1017.39
2019-02-20T10:57:06.749Z,1017.44
2019-02-20T10:58:06.712Z,1017.37
2019-02-20T10:59:06.702Z,1017.41
2019-02-20T11:00:06.704Z,1017.41
2019-02-20T11:01:06.682Z,1017.42
2019-02-20T11:02:06.688Z,1017.40
2019-02-20T11:03:06.653Z,1017.43
2019-02-20T11:04:06.641Z,1017.34
2019-02-20T11:05:06.664Z,1017.38
2019-02-20T11:06:06.622Z,1017.32
2019-02-20T11:07:06.622Z,1017.33
2019-02-20T11:08:06.604Z,1017.34
2019-02-20T11:09:06.591Z,1017.32
2019-02-20T11:10:06.574Z,1017.38
2019-02-20T11:11:06.567Z,1017.46
2019-02-20T11:12:06.575Z,1017.35
2019-02-20T11:13:06.548Z,1017.40
2019-02-20T11:14:06.530Z,1017.40
2019-02-20T11:15:06.519Z,1017.44
2019-02-20T11:16:06.511Z,1017.37
2019-02-20T11:17:06.518Z,1017.52
2019-02-20T11:18:06.485Z,1017.33
2019-02-20T11:19:06.483Z,1017.33
2019-02-20T11:20:06.460Z,1017.31
2019-02-20T11:21:06.446Z,1017.36
2019-02-20T11:22:06.457Z,1017.32
2019-02-20T11:23:06.425Z,1017.34
2019-02-20T11:24:06.413Z,1017.39
2019-02-20T11:25:06.412Z,1017.41
2019-02-20T11:26:06.400Z,1017.33
2019-02-20T11:27:06.401Z,1017.34
2019-02-20T11:28:06.370Z,1017.30
2019-02-20T11:29:06.357Z,1017.26
2019-02-20T11:30:07.296Z,1017.25
2019-02-20T11:31:06.339Z,1017.23
2019-02-20T11:32:06.345Z,1017.35
2019-02-20T11:33:06.317Z,1017.20
2019-02-20T11:34:06.313Z,1017.16
2019-02-20T11:35:06.290Z,1017.20
2019-02-20T11:36:06.282Z,1017.20
2019-02-20T11:37:06.291Z,1017.20
2019-02-20T11:38:06.256Z,1017.20
2019-02-20T11:39:06.247Z,1017.28
2019-02-20T11:40:06.231Z,1017.20
2019-02-20T11:41:06.225Z,1017.30
2019-02-20T11:42:06.350Z,1017.26
2019-02-20T11:43:06.340Z,1017.28
2019-02-20T11:44:06.190Z,1017.29
2019-02-20T11:45:06.191Z,1017.30
2019-02-20T11:46:06.169Z,1017.22
2019-02-20T11:47:06.212Z,1017.18
2019-02-20T11:48:06.143Z,1017.21
2019-02-20T11:49:06.131Z,1017.16
2019-02-20T11:50:07.799Z,1017.17
2019-02-20T11:51:06.124Z,1017.18
2019-02-20T11:52:06.149Z,1017.15
2019-02-20T11:53:06.087Z,1017.18
2019-02-20T11:54:06.085Z,1017.23
2019-02-20T11:55:06.071Z,1017.27
2019-02-20T11:56:06.052Z,1017.27
2019-02-20T11:57:06.074Z,1017.22
2019-02-20T11:58:06.027Z,1017.16
2019-02-20T11:59:06.015Z,1017.25
2019-02-20T12:00:06.013Z,1017.27
2019-02-20T12:01:05.996Z,1017.23
2019-02-20T12:02:06.027Z,1017.24
2019-02-20T12:03:06.002Z,1017.29
2019-02-20T12:04:05.957Z,1017.19
2019-02-20T12:05:05.958Z,1017.05